sensor_id;sensor_type;location;lat;lon;timestamp;P1;durP1;ratioP1;P2;durP2;ratioP2
7231;SDS011;3657;49.630;11.018;2022-12-07T00:01:03;14.63;;;13.93;;
7231;SDS011;3657;49.630;11.018;2022-12-07T00:03:31;15.20;;;14.40;;
7231;SDS011;3657;49.630;11.018;2022-12-07T00:05:59;13.20;;;12.60;;
7231;SDS011;3657;49.630;11.018;2022-12-07T00:08:26;15.53;;;14.73;;
7231;SDS011;3657;49.630;11.018;2022-12-07T00:10:53;12.80;;;12.20;;
7231;SDS011;3657;49.630;11.018;2022-12-07T00:13:19;13.40;;;12.73;;
7231;SDS011;3657;49.630;11.018;2022-12-07T00:15:46;15.47;;;14.67;;
7231;SDS011;3657;49.630;11.018;2022-12-07T00:18:13;14.00;;;13.30;;
7231;SDS011;3657;49.630;11.018;2022-12-07T00:20:39;13.53;;;12.83;;
7231;SDS011;3657;49.630;11.018;2022-12-07T00:23:07;14.87;;;14.17;;
7231;SDS011;3657;49.630;11.018;2022-12-07T00:25:34;13.47;;;12.87;;
7231;SDS011;3657;49.630;11.018;2022-12-07T00:28:01;13.47;;;12.77;;
7231;SDS011;3657;49.630;11.018;2022-12-07T00:30:28;16.63;;;15.47;;
7231;SDS011;3657;49.630;11.018;2022-12-07T00:32:54;14.23;;;13.40;;
7231;SDS011;3657;49.630;11.018;2022-12-07T00:35:21;13.83;;;13.20;;
7231;SDS011;3657;49.630;11.018;2022-12-07T00:37:48;14.17;;;13.57;;
7231;SDS011;3657;49.630;11.018;2022-12-07T00:40:16;12.87;;;12.17;;
7231;SDS011;3657;49.630;11.018;2022-12-07T00:42:42;13.77;;;13.10;;
7231;SDS011;3657;49.630;11.018;2022-12-07T00:45:09;13.37;;;12.77;;
7231;SDS011;3657;49.630;11.018;2022-12-07T00:47:36;12.70;;;12.17;;
7231;SDS011;3657;49.630;11.018;2022-12-07T00:50:03;13.20;;;12.70;;
7231;SDS011;3657;49.630;11.018;2022-12-07T00:52:30;15.13;;;14.20;;
7231;SDS011;3657;49.630;11.018;2022-12-07T00:54:57;13.07;;;12.47;;
7231;SDS011;3657;49.630;11.018;2022-12-07T00:57:25;13.03;;;12.43;;
7231;SDS011;3657;49.630;11.018;2022-12-07T00:59:52;13.77;;;13.07;;
7231;SDS011;3657;49.630;11.018;2022-12-07T01:02:20;13.80;;;13.10;;
7231;SDS011;3657;49.630;11.018;2022-12-07T01:04:47;13.90;;;13.20;;
7231;SDS011;3657;49.630;11.018;2022-12-07T01:07:14;13.07;;;12.47;;
7231;SDS011;3657;49.630;11.018;2022-12-07T01:09:40;12.03;;;11.53;;
7231;SDS011;3657;49.630;11.018;2022-12-07T01:12:07;13.40;;;12.70;;
7231;SDS011;3657;49.630;11.018;2022-12-07T01:14:35;13.43;;;12.83;;
7231;SDS011;3657;49.630;11.018;2022-12-07T01:17:02;13.43;;;12.83;;
7231;SDS011;3657;49.630;11.018;2022-12-07T01:19:28;14.97;;;14.17;;
7231;SDS011;3657;49.630;11.018;2022-12-07T01:21:55;13.80;;;13.07;;
7231;SDS011;3657;49.630;11.018;2022-12-07T01:24:22;13.47;;;12.87;;
7231;SDS011;3657;49.630;11.018;2022-12-07T01:26:49;13.30;;;12.70;;
7231;SDS011;3657;49.630;11.018;2022-12-07T01:29:15;13.97;;;13.27;;
7231;SDS011;3657;49.630;11.018;2022-12-07T01:31:43;16.60;;;15.60;;
7231;SDS011;3657;49.630;11.018;2022-12-07T01:34:10;14.07;;;13.37;;
7231;SDS011;3657;49.630;11.018;2022-12-07T01:36:37;15.80;;;14.90;;
7231;SDS011;3657;49.630;11.018;2022-12-07T01:39:05;16.03;;;15.03;;
7231;SDS011;3657;49.630;11.018;2022-12-07T01:41:33;14.67;;;13.77;;
7231;SDS011;3657;49.630;11.018;2022-12-07T01:44:09;15.97;;;14.97;;
7231;SDS011;3657;49.630;11.018;2022-12-07T01:46:38;13.17;;;12.57;;
7231;SDS011;3657;49.630;11.018;2022-12-07T01:49:08;13.83;;;13.13;;
7231;SDS011;3657;49.630;11.018;2022-12-07T01:51:38;12.83;;;12.23;;
7231;SDS011;3657;49.630;11.018;2022-12-07T01:54:08;12.50;;;11.90;;
7231;SDS011;3657;49.630;11.018;2022-12-07T01:56:37;14.87;;;14.07;;
7231;SDS011;3657;49.630;11.018;2022-12-07T01:59:06;13.90;;;13.20;;
7231;SDS011;3657;49.630;11.018;2022-12-07T02:01:34;13.33;;;12.63;;
7231;SDS011;3657;49.630;11.018;2022-12-07T02:04:00;13.40;;;12.80;;
7231;SDS011;3657;49.630;11.018;2022-12-07T02:06:29;13.83;;;12.93;;
7231;SDS011;3657;49.630;11.018;2022-12-07T02:08:56;13.87;;;13.17;;
7231;SDS011;3657;49.630;11.018;2022-12-07T02:11:23;15.27;;;14.40;;
7231;SDS011;3657;49.630;11.018;2022-12-07T02:13:50;13.10;;;12.43;;
7231;SDS011;3657;49.630;11.018;2022-12-07T02:16:21;13.33;;;12.73;;
7231;SDS011;3657;49.630;11.018;2022-12-07T02:19:11;14.50;;;13.60;;
7231;SDS011;3657;49.630;11.018;2022-12-07T02:22:07;16.43;;;15.43;;
7231;SDS011;3657;49.630;11.018;2022-12-07T02:24:46;13.53;;;12.93;;
7231;SDS011;3657;49.630;11.018;2022-12-07T02:27:24;13.93;;;13.23;;
7231;SDS011;3657;49.630;11.018;2022-12-07T02:30:03;15.07;;;14.17;;
7231;SDS011;3657;49.630;11.018;2022-12-07T02:32:35;13.67;;;12.97;;
7231;SDS011;3657;49.630;11.018;2022-12-07T02:35:11;13.47;;;12.77;;
7231;SDS011;3657;49.630;11.018;2022-12-07T02:37:45;13.57;;;12.87;;
7231;SDS011;3657;49.630;11.018;2022-12-07T02:42:51;15.33;;;14.53;;
7231;SDS011;3657;49.630;11.018;2022-12-07T02:45:25;15.57;;;14.57;;
7231;SDS011;3657;49.630;11.018;2022-12-07T02:47:55;14.73;;;13.83;;
7231;SDS011;3657;49.630;11.018;2022-12-07T02:50:25;17.50;;;16.07;;
7231;SDS011;3657;49.630;11.018;2022-12-07T02:52:53;15.83;;;14.83;;
7231;SDS011;3657;49.630;11.018;2022-12-07T02:55:21;15.53;;;14.50;;
7231;SDS011;3657;49.630;11.018;2022-12-07T02:58:05;16.63;;;15.57;;
7231;SDS011;3657;49.630;11.018;2022-12-07T03:00:44;16.93;;;15.77;;
7231;SDS011;3657;49.630;11.018;2022-12-07T03:03:18;16.67;;;15.43;;
7231;SDS011;3657;49.630;11.018;2022-12-07T03:05:49;16.77;;;15.67;;
7231;SDS011;3657;49.630;11.018;2022-12-07T03:08:27;16.50;;;15.47;;
7231;SDS011;3657;49.630;11.018;2022-12-07T03:11:03;17.33;;;16.13;;
7231;SDS011;3657;49.630;11.018;2022-12-07T03:13:33;16.40;;;15.40;;
7231;SDS011;3657;49.630;11.018;2022-12-07T03:16:08;16.70;;;15.73;;
7231;SDS011;3657;49.630;11.018;2022-12-07T03:18:41;20.43;;;18.77;;
7231;SDS011;3657;49.630;11.018;2022-12-07T03:21:14;16.50;;;15.40;;
7231;SDS011;3657;49.630;11.018;2022-12-07T03:23:44;16.37;;;15.20;;
7231;SDS011;3657;49.630;11.018;2022-12-07T03:26:15;15.13;;;14.23;;
7231;SDS011;3657;49.630;11.018;2022-12-07T03:28:45;14.30;;;13.50;;
7231;SDS011;3657;49.630;11.018;2022-12-07T03:31:17;16.07;;;15.07;;
7231;SDS011;3657;49.630;11.018;2022-12-07T03:33:48;18.50;;;17.10;;
7231;SDS011;3657;49.630;11.018;2022-12-07T03:36:19;14.83;;;14.00;;
7231;SDS011;3657;49.630;11.018;2022-12-07T03:38:53;15.00;;;14.10;;
7231;SDS011;3657;49.630;11.018;2022-12-07T03:41:24;15.87;;;14.77;;
7231;SDS011;3657;49.630;11.018;2022-12-07T03:43:54;15.43;;;14.53;;
7231;SDS011;3657;49.630;11.018;2022-12-07T03:46:27;16.30;;;15.10;;
7231;SDS011;3657;49.630;11.018;2022-12-07T03:49:03;15.90;;;14.87;;
7231;SDS011;3657;49.630;11.018;2022-12-07T03:51:36;15.47;;;14.37;;
7231;SDS011;3657;49.630;11.018;2022-12-07T03:54:08;16.10;;;15.10;;
7231;SDS011;3657;49.630;11.018;2022-12-07T03:56:39;15.30;;;14.30;;
7231;SDS011;3657;49.630;11.018;2022-12-07T03:59:08;15.13;;;14.23;;
7231;SDS011;3657;49.630;11.018;2022-12-07T04:01:36;15.13;;;14.20;;
7231;SDS011;3657;49.630;11.018;2022-12-07T04:04:03;20.07;;;18.37;;
7231;SDS011;3657;49.630;11.018;2022-12-07T04:06:30;18.20;;;16.97;;
7231;SDS011;3657;49.630;11.018;2022-12-07T04:08:57;15.70;;;14.70;;
7231;SDS011;3657;49.630;11.018;2022-12-07T04:11:23;14.47;;;13.67;;
7231;SDS011;3657;49.630;11.018;2022-12-07T04:13:50;14.33;;;13.53;;
7231;SDS011;3657;49.630;11.018;2022-12-07T04:16:34;17.10;;;15.77;;
7231;SDS011;3657;49.630;11.018;2022-12-07T04:19:02;15.10;;;14.17;;
7231;SDS011;3657;49.630;11.018;2022-12-07T04:21:29;15.67;;;14.67;;
7231;SDS011;3657;49.630;11.018;2022-12-07T04:23:56;15.93;;;14.93;;
7231;SDS011;3657;49.630;11.018;2022-12-07T04:26:22;15.37;;;14.47;;
7231;SDS011;3657;49.630;11.018;2022-12-07T04:28:49;19.83;;;18.27;;
7231;SDS011;3657;49.630;11.018;2022-12-07T04:31:16;15.57;;;14.57;;
7231;SDS011;3657;49.630;11.018;2022-12-07T04:33:44;15.73;;;14.73;;
7231;SDS011;3657;49.630;11.018;2022-12-07T04:36:11;19.17;;;17.73;;
7231;SDS011;3657;49.630;11.018;2022-12-07T04:38:37;17.43;;;16.13;;
7231;SDS011;3657;49.630;11.018;2022-12-07T04:41:04;17.10;;;15.80;;
7231;SDS011;3657;49.630;11.018;2022-12-07T04:43:32;18.20;;;16.93;;
7231;SDS011;3657;49.630;11.018;2022-12-07T04:45:58;21.10;;;19.43;;
7231;SDS011;3657;49.630;11.018;2022-12-07T04:48:25;18.33;;;16.93;;
7231;SDS011;3657;49.630;11.018;2022-12-07T04:50:53;20.07;;;18.57;;
7231;SDS011;3657;49.630;11.018;2022-12-07T04:53:20;18.50;;;17.13;;
7231;SDS011;3657;49.630;11.018;2022-12-07T04:55:47;20.60;;;18.90;;
7231;SDS011;3657;49.630;11.018;2022-12-07T04:58:14;21.50;;;19.70;;
7231;SDS011;3657;49.630;11.018;2022-12-07T05:00:41;19.40;;;17.90;;
7231;SDS011;3657;49.630;11.018;2022-12-07T05:03:08;18.40;;;17.00;;
7231;SDS011;3657;49.630;11.018;2022-12-07T05:05:34;21.07;;;19.27;;
7231;SDS011;3657;49.630;11.018;2022-12-07T05:08:02;22.07;;;20.10;;
7231;SDS011;3657;49.630;11.018;2022-12-07T05:10:29;19.57;;;18.07;;
7231;SDS011;3657;49.630;11.018;2022-12-07T05:12:56;22.07;;;20.07;;
7231;SDS011;3657;49.630;11.018;2022-12-07T05:15:23;18.57;;;17.17;;
7231;SDS011;3657;49.630;11.018;2022-12-07T05:17:49;25.57;;;23.07;;
7231;SDS011;3657;49.630;11.018;2022-12-07T05:20:17;18.47;;;17.03;;
7231;SDS011;3657;49.630;11.018;2022-12-07T05:22:44;18.80;;;17.30;;
7231;SDS011;3657;49.630;11.018;2022-12-07T05:25:12;19.70;;;18.07;;
7231;SDS011;3657;49.630;11.018;2022-12-07T05:27:38;21.27;;;19.57;;
7231;SDS011;3657;49.630;11.018;2022-12-07T05:30:05;24.20;;;21.90;;
7231;SDS011;3657;49.630;11.018;2022-12-07T05:32:33;19.17;;;17.57;;
7231;SDS011;3657;49.630;11.018;2022-12-07T05:35:00;19.83;;;18.23;;
7231;SDS011;3657;49.630;11.018;2022-12-07T05:37:26;22.93;;;20.83;;
7231;SDS011;3657;49.630;11.018;2022-12-07T05:39:53;20.87;;;19.17;;
7231;SDS011;3657;49.630;11.018;2022-12-07T05:42:21;21.00;;;19.10;;
7231;SDS011;3657;49.630;11.018;2022-12-07T05:44:48;22.60;;;20.60;;
7231;SDS011;3657;49.630;11.018;2022-12-07T05:47:15;21.83;;;19.90;;
7231;SDS011;3657;49.630;11.018;2022-12-07T05:49:42;23.93;;;21.80;;
7231;SDS011;3657;49.630;11.018;2022-12-07T05:52:09;21.60;;;19.70;;
7231;SDS011;3657;49.630;11.018;2022-12-07T05:54:35;23.47;;;21.33;;
7231;SDS011;3657;49.630;11.018;2022-12-07T05:57:02;21.67;;;19.73;;
7231;SDS011;3657;49.630;11.018;2022-12-07T05:59:30;23.50;;;21.30;;
7231;SDS011;3657;49.630;11.018;2022-12-07T06:01:56;23.57;;;21.57;;
7231;SDS011;3657;49.630;11.018;2022-12-07T06:04:24;21.03;;;19.23;;
7231;SDS011;3657;49.630;11.018;2022-12-07T06:06:52;22.80;;;20.80;;
7231;SDS011;3657;49.630;11.018;2022-12-07T06:09:20;19.93;;;18.27;;
7231;SDS011;3657;49.630;11.018;2022-12-07T06:11:47;23.93;;;21.53;;
7231;SDS011;3657;49.630;11.018;2022-12-07T06:14:33;21.60;;;19.57;;
7231;SDS011;3657;49.630;11.018;2022-12-07T06:17:00;22.43;;;20.33;;
7231;SDS011;3657;49.630;11.018;2022-12-07T06:19:27;25.83;;;23.47;;
7231;SDS011;3657;49.630;11.018;2022-12-07T06:21:53;21.27;;;19.37;;
7231;SDS011;3657;49.630;11.018;2022-12-07T06:24:21;20.97;;;19.07;;
7231;SDS011;3657;49.630;11.018;2022-12-07T06:26:48;20.50;;;18.80;;
7231;SDS011;3657;49.630;11.018;2022-12-07T06:29:16;20.73;;;18.87;;
7231;SDS011;3657;49.630;11.018;2022-12-07T06:31:45;21.90;;;19.93;;
7231;SDS011;3657;49.630;11.018;2022-12-07T06:34:12;20.87;;;19.07;;
7231;SDS011;3657;49.630;11.018;2022-12-07T06:36:40;20.60;;;18.73;;
7231;SDS011;3657;49.630;11.018;2022-12-07T06:39:07;18.93;;;17.53;;
7231;SDS011;3657;49.630;11.018;2022-12-07T06:41:34;19.40;;;17.70;;
7231;SDS011;3657;49.630;11.018;2022-12-07T06:44:01;19.10;;;17.63;;
7231;SDS011;3657;49.630;11.018;2022-12-07T06:46:28;20.23;;;18.53;;
7231;SDS011;3657;49.630;11.018;2022-12-07T06:48:56;18.57;;;17.07;;
7231;SDS011;3657;49.630;11.018;2022-12-07T06:51:23;19.43;;;17.77;;
7231;SDS011;3657;49.630;11.018;2022-12-07T06:53:50;17.60;;;16.30;;
7231;SDS011;3657;49.630;11.018;2022-12-07T06:56:17;19.50;;;17.73;;
7231;SDS011;3657;49.630;11.018;2022-12-07T06:58:44;20.20;;;18.40;;
7231;SDS011;3657;49.630;11.018;2022-12-07T07:01:11;21.40;;;19.63;;
7231;SDS011;3657;49.630;11.018;2022-12-07T07:03:39;20.23;;;18.53;;
7231;SDS011;3657;49.630;11.018;2022-12-07T07:06:08;19.83;;;18.03;;
7231;SDS011;3657;49.630;11.018;2022-12-07T07:08:35;21.07;;;19.17;;
7231;SDS011;3657;49.630;11.018;2022-12-07T07:11:02;20.33;;;18.53;;
7231;SDS011;3657;49.630;11.018;2022-12-07T07:13:29;19.40;;;17.80;;
7231;SDS011;3657;49.630;11.018;2022-12-07T07:15:56;20.30;;;18.57;;
7231;SDS011;3657;49.630;11.018;2022-12-07T07:18:23;23.83;;;21.50;;
7231;SDS011;3657;49.630;11.018;2022-12-07T07:20:50;21.33;;;19.57;;
7231;SDS011;3657;49.630;11.018;2022-12-07T07:23:18;21.83;;;19.93;;
7231;SDS011;3657;49.630;11.018;2022-12-07T07:25:46;21.63;;;19.67;;
7231;SDS011;3657;49.630;11.018;2022-12-07T07:28:13;21.70;;;19.80;;
7231;SDS011;3657;49.630;11.018;2022-12-07T07:30:40;21.10;;;19.20;;
7231;SDS011;3657;49.630;11.018;2022-12-07T07:33:07;20.63;;;18.80;;
7231;SDS011;3657;49.630;11.018;2022-12-07T07:35:35;22.00;;;20.03;;
7231;SDS011;3657;49.630;11.018;2022-12-07T07:38:01;23.67;;;21.40;;
7231;SDS011;3657;49.630;11.018;2022-12-07T07:40:30;20.53;;;18.83;;
7231;SDS011;3657;49.630;11.018;2022-12-07T07:42:57;21.27;;;19.30;;
7231;SDS011;3657;49.630;11.018;2022-12-07T07:45:24;20.23;;;18.47;;
7231;SDS011;3657;49.630;11.018;2022-12-07T07:47:52;16.43;;;14.93;;
7231;SDS011;3657;49.630;11.018;2022-12-07T07:50:19;20.57;;;18.87;;
7231;SDS011;3657;49.630;11.018;2022-12-07T07:52:46;21.63;;;19.50;;
7231;SDS011;3657;49.630;11.018;2022-12-07T07:55:13;21.07;;;19.17;;
7231;SDS011;3657;49.630;11.018;2022-12-07T07:57:41;22.30;;;20.07;;
7231;SDS011;3657;49.630;11.018;2022-12-07T08:00:09;23.27;;;21.07;;
7231;SDS011;3657;49.630;11.018;2022-12-07T08:02:38;21.13;;;19.10;;
7231;SDS011;3657;49.630;11.018;2022-12-07T08:05:06;21.10;;;19.10;;
7231;SDS011;3657;49.630;11.018;2022-12-07T08:07:33;21.00;;;19.20;;
7231;SDS011;3657;49.630;11.018;2022-12-07T08:09:59;19.70;;;18.00;;
7231;SDS011;3657;49.630;11.018;2022-12-07T08:12:26;21.77;;;19.87;;
7231;SDS011;3657;49.630;11.018;2022-12-07T08:14:54;22.60;;;20.53;;
7231;SDS011;3657;49.630;11.018;2022-12-07T08:17:21;20.37;;;18.60;;
7231;SDS011;3657;49.630;11.018;2022-12-07T08:19:48;21.63;;;19.63;;
7231;SDS011;3657;49.630;11.018;2022-12-07T08:22:14;20.67;;;18.87;;
7231;SDS011;3657;49.630;11.018;2022-12-07T08:24:41;23.47;;;21.07;;
7231;SDS011;3657;49.630;11.018;2022-12-07T08:27:08;21.07;;;19.17;;
7231;SDS011;3657;49.630;11.018;2022-12-07T08:29:34;25.77;;;23.27;;
7231;SDS011;3657;49.630;11.018;2022-12-07T08:32:03;22.47;;;20.53;;
7231;SDS011;3657;49.630;11.018;2022-12-07T08:34:30;22.13;;;20.10;;
7231;SDS011;3657;49.630;11.018;2022-12-07T08:36:56;22.10;;;20.00;;
7231;SDS011;3657;49.630;11.018;2022-12-07T08:39:23;20.33;;;18.47;;
7231;SDS011;3657;49.630;11.018;2022-12-07T08:41:50;21.47;;;19.47;;
7231;SDS011;3657;49.630;11.018;2022-12-07T08:44:16;19.33;;;17.70;;
7231;SDS011;3657;49.630;11.018;2022-12-07T08:46:44;18.90;;;17.33;;
7231;SDS011;3657;49.630;11.018;2022-12-07T08:49:17;22.07;;;19.97;;
7231;SDS011;3657;49.630;11.018;2022-12-07T08:51:48;20.37;;;18.53;;
7231;SDS011;3657;49.630;11.018;2022-12-07T08:54:16;21.50;;;19.60;;
7231;SDS011;3657;49.630;11.018;2022-12-07T08:56:44;21.33;;;19.33;;
7231;SDS011;3657;49.630;11.018;2022-12-07T08:59:14;23.43;;;21.17;;
7231;SDS011;3657;49.630;11.018;2022-12-07T09:01:43;18.73;;;17.13;;
7231;SDS011;3657;49.630;11.018;2022-12-07T09:04:10;20.50;;;18.50;;
7231;SDS011;3657;49.630;11.018;2022-12-07T09:06:38;19.80;;;18.10;;
7231;SDS011;3657;49.630;11.018;2022-12-07T09:09:05;21.03;;;18.93;;
7231;SDS011;3657;49.630;11.018;2022-12-07T09:11:32;22.13;;;20.03;;
7231;SDS011;3657;49.630;11.018;2022-12-07T09:13:59;20.30;;;18.40;;
7231;SDS011;3657;49.630;11.018;2022-12-07T09:16:26;20.13;;;18.53;;
7231;SDS011;3657;49.630;11.018;2022-12-07T09:18:53;19.43;;;17.80;;
7231;SDS011;3657;49.630;11.018;2022-12-07T09:21:20;21.20;;;19.33;;
7231;SDS011;3657;49.630;11.018;2022-12-07T09:23:48;20.47;;;18.67;;
7231;SDS011;3657;49.630;11.018;2022-12-07T09:26:15;20.00;;;18.30;;
7231;SDS011;3657;49.630;11.018;2022-12-07T09:28:42;19.30;;;17.60;;
7231;SDS011;3657;49.630;11.018;2022-12-07T09:31:08;19.57;;;17.87;;
7231;SDS011;3657;49.630;11.018;2022-12-07T09:33:35;19.90;;;18.20;;
7231;SDS011;3657;49.630;11.018;2022-12-07T09:36:02;20.07;;;18.40;;
7231;SDS011;3657;49.630;11.018;2022-12-07T09:38:30;17.97;;;16.53;;
7231;SDS011;3657;49.630;11.018;2022-12-07T09:40:59;19.37;;;17.77;;
7231;SDS011;3657;49.630;11.018;2022-12-07T09:43:31;19.67;;;17.93;;
7231;SDS011;3657;49.630;11.018;2022-12-07T09:46:00;20.23;;;18.43;;
7231;SDS011;3657;49.630;11.018;2022-12-07T09:48:29;18.67;;;17.03;;
7231;SDS011;3657;49.630;11.018;2022-12-07T09:50:58;19.33;;;17.50;;
7231;SDS011;3657;49.630;11.018;2022-12-07T09:53:27;18.33;;;16.93;;
7231;SDS011;3657;49.630;11.018;2022-12-07T09:55:56;21.20;;;19.30;;
7231;SDS011;3657;49.630;11.018;2022-12-07T09:58:25;19.77;;;18.00;;
7231;SDS011;3657;49.630;11.018;2022-12-07T10:00:54;18.33;;;16.83;;
7231;SDS011;3657;49.630;11.018;2022-12-07T10:03:23;19.63;;;18.00;;
7231;SDS011;3657;49.630;11.018;2022-12-07T10:05:50;20.03;;;18.23;;
7231;SDS011;3657;49.630;11.018;2022-12-07T10:08:18;21.40;;;19.10;;
7231;SDS011;3657;49.630;11.018;2022-12-07T10:10:46;19.43;;;17.73;;
7231;SDS011;3657;49.630;11.018;2022-12-07T10:13:18;19.93;;;18.23;;
7231;SDS011;3657;49.630;11.018;2022-12-07T10:15:48;19.53;;;17.93;;
7231;SDS011;3657;49.630;11.018;2022-12-07T10:18:21;18.50;;;17.07;;
7231;SDS011;3657;49.630;11.018;2022-12-07T10:21:00;21.43;;;19.63;;
7231;SDS011;3657;49.630;11.018;2022-12-07T10:23:32;22.37;;;20.17;;
7231;SDS011;3657;49.630;11.018;2022-12-07T10:26:00;19.20;;;17.53;;
7231;SDS011;3657;49.630;11.018;2022-12-07T10:28:48;18.97;;;17.40;;
7231;SDS011;3657;49.630;11.018;2022-12-07T10:31:15;18.13;;;16.67;;
7231;SDS011;3657;49.630;11.018;2022-12-07T10:33:48;19.30;;;17.60;;
7231;SDS011;3657;49.630;11.018;2022-12-07T10:36:17;17.83;;;16.53;;
7231;SDS011;3657;49.630;11.018;2022-12-07T10:38:46;19.20;;;17.67;;
7231;SDS011;3657;49.630;11.018;2022-12-07T10:41:15;20.33;;;18.63;;
7231;SDS011;3657;49.630;11.018;2022-12-07T10:43:53;22.10;;;20.10;;
7231;SDS011;3657;49.630;11.018;2022-12-07T10:52:26;18.00;;;16.60;;
7231;SDS011;3657;49.630;11.018;2022-12-07T10:55:13;18.63;;;17.23;;
7231;SDS011;3657;49.630;11.018;2022-12-07T10:57:49;19.77;;;18.07;;
7231;SDS011;3657;49.630;11.018;2022-12-07T11:00:34;17.37;;;16.00;;
7231;SDS011;3657;49.630;11.018;2022-12-07T11:03:15;19.80;;;18.10;;
7231;SDS011;3657;49.630;11.018;2022-12-07T11:06:05;19.60;;;18.00;;
7231;SDS011;3657;49.630;11.018;2022-12-07T11:08:47;19.93;;;18.23;;
7231;SDS011;3657;49.630;11.018;2022-12-07T11:11:25;19.20;;;17.70;;
7231;SDS011;3657;49.630;11.018;2022-12-07T11:13:59;19.63;;;17.97;;
7231;SDS011;3657;49.630;11.018;2022-12-07T11:16:48;18.17;;;16.77;;
7231;SDS011;3657;49.630;11.018;2022-12-07T11:19:30;19.77;;;17.97;;
7231;SDS011;3657;49.630;11.018;2022-12-07T11:22:06;20.27;;;18.30;;
7231;SDS011;3657;49.630;11.018;2022-12-07T11:24:40;17.10;;;15.80;;
7231;SDS011;3657;49.630;11.018;2022-12-07T11:27:16;18.60;;;17.13;;
7231;SDS011;3657;49.630;11.018;2022-12-07T11:29:52;20.00;;;18.10;;
7231;SDS011;3657;49.630;11.018;2022-12-07T11:32:34;19.20;;;17.67;;
7231;SDS011;3657;49.630;11.018;2022-12-07T11:35:30;21.57;;;19.60;;
7231;SDS011;3657;49.630;11.018;2022-12-07T11:38:08;19.20;;;17.70;;
7231;SDS011;3657;49.630;11.018;2022-12-07T11:40:39;19.23;;;17.63;;
7231;SDS011;3657;49.630;11.018;2022-12-07T11:43:12;21.10;;;19.10;;
7231;SDS011;3657;49.630;11.018;2022-12-07T11:45:44;19.93;;;18.30;;
7231;SDS011;3657;49.630;11.018;2022-12-07T11:48:17;17.97;;;16.57;;
7231;SDS011;3657;49.630;11.018;2022-12-07T11:50:48;20.97;;;19.20;;
7231;SDS011;3657;49.630;11.018;2022-12-07T11:53:19;20.63;;;18.90;;
7231;SDS011;3657;49.630;11.018;2022-12-07T11:55:52;19.40;;;17.67;;
7231;SDS011;3657;49.630;11.018;2022-12-07T11:58:33;21.20;;;19.13;;
7231;SDS011;3657;49.630;11.018;2022-12-07T12:01:11;21.30;;;19.60;;
7231;SDS011;3657;49.630;11.018;2022-12-07T12:03:47;20.47;;;18.70;;
7231;SDS011;3657;49.630;11.018;2022-12-07T12:06:16;20.63;;;18.93;;
7231;SDS011;3657;49.630;11.018;2022-12-07T12:08:43;19.90;;;18.40;;
7231;SDS011;3657;49.630;11.018;2022-12-07T12:11:17;19.53;;;18.03;;
7231;SDS011;3657;49.630;11.018;2022-12-07T12:14:01;19.67;;;18.10;;
7231;SDS011;3657;49.630;11.018;2022-12-07T12:17:10;23.60;;;21.60;;
7231;SDS011;3657;49.630;11.018;2022-12-07T12:19:59;20.47;;;18.87;;
7231;SDS011;3657;49.630;11.018;2022-12-07T12:22:32;19.87;;;18.33;;
7231;SDS011;3657;49.630;11.018;2022-12-07T12:25:03;19.30;;;17.70;;
7231;SDS011;3657;49.630;11.018;2022-12-07T12:27:32;20.37;;;18.67;;
7231;SDS011;3657;49.630;11.018;2022-12-07T12:30:02;20.63;;;18.67;;
7231;SDS011;3657;49.630;11.018;2022-12-07T12:32:34;20.33;;;18.83;;
7231;SDS011;3657;49.630;11.018;2022-12-07T12:35:22;19.33;;;17.93;;
7231;SDS011;3657;49.630;11.018;2022-12-07T12:37:55;18.23;;;16.87;;
7231;SDS011;3657;49.630;11.018;2022-12-07T12:40:46;20.60;;;18.80;;
7231;SDS011;3657;49.630;11.018;2022-12-07T12:55:20;20.80;;;18.90;;
7231;SDS011;3657;49.630;11.018;2022-12-07T12:58:25;20.60;;;18.87;;
7231;SDS011;3657;49.630;11.018;2022-12-07T13:10:20;19.10;;;17.63;;
7231;SDS011;3657;49.630;11.018;2022-12-07T13:13:31;18.57;;;17.07;;
7231;SDS011;3657;49.630;11.018;2022-12-07T13:25:20;18.40;;;16.90;;
7231;SDS011;3657;49.630;11.018;2022-12-07T13:27:59;18.93;;;17.50;;
7231;SDS011;3657;49.630;11.018;2022-12-07T13:30:29;18.53;;;17.00;;
7231;SDS011;3657;49.630;11.018;2022-12-07T13:32:58;17.30;;;15.90;;
7231;SDS011;3657;49.630;11.018;2022-12-07T13:35:29;17.43;;;16.23;;
7231;SDS011;3657;49.630;11.018;2022-12-07T13:37:58;17.77;;;16.40;;
7231;SDS011;3657;49.630;11.018;2022-12-07T13:40:25;17.23;;;15.97;;
7231;SDS011;3657;49.630;11.018;2022-12-07T13:42:58;18.23;;;16.93;;
7231;SDS011;3657;49.630;11.018;2022-12-07T13:45:26;18.40;;;16.90;;
7231;SDS011;3657;49.630;11.018;2022-12-07T13:48:09;17.37;;;16.10;;
7231;SDS011;3657;49.630;11.018;2022-12-07T13:50:41;16.10;;;15.00;;
7231;SDS011;3657;49.630;11.018;2022-12-07T13:53:11;17.17;;;15.93;;
7231;SDS011;3657;49.630;11.018;2022-12-07T13:55:44;15.97;;;14.87;;
7231;SDS011;3657;49.630;11.018;2022-12-07T13:58:11;16.97;;;15.77;;
7231;SDS011;3657;49.630;11.018;2022-12-07T14:00:39;16.20;;;15.00;;
7231;SDS011;3657;49.630;11.018;2022-12-07T14:03:22;16.63;;;15.53;;
7231;SDS011;3657;49.630;11.018;2022-12-07T14:06:03;19.37;;;17.97;;
7231;SDS011;3657;49.630;11.018;2022-12-07T14:08:34;17.47;;;16.30;;
7231;SDS011;3657;49.630;11.018;2022-12-07T14:11:00;18.50;;;17.17;;
7231;SDS011;3657;49.630;11.018;2022-12-07T14:13:28;16.40;;;15.20;;
7231;SDS011;3657;49.630;11.018;2022-12-07T14:15:59;16.13;;;15.03;;
7231;SDS011;3657;49.630;11.018;2022-12-07T14:18:28;14.50;;;13.50;;
7231;SDS011;3657;49.630;11.018;2022-12-07T14:21:02;14.67;;;13.70;;
7231;SDS011;3657;49.630;11.018;2022-12-07T14:23:30;17.20;;;15.97;;
7231;SDS011;3657;49.630;11.018;2022-12-07T14:26:05;17.00;;;15.70;;
7231;SDS011;3657;49.630;11.018;2022-12-07T14:28:34;15.70;;;14.40;;
7231;SDS011;3657;49.630;11.018;2022-12-07T14:31:02;14.43;;;13.53;;
7231;SDS011;3657;49.630;11.018;2022-12-07T14:33:34;15.77;;;14.40;;
7231;SDS011;3657;49.630;11.018;2022-12-07T14:36:01;14.83;;;13.83;;
7231;SDS011;3657;49.630;11.018;2022-12-07T14:38:28;14.93;;;13.93;;
7231;SDS011;3657;49.630;11.018;2022-12-07T14:40:54;16.10;;;15.10;;
7231;SDS011;3657;49.630;11.018;2022-12-07T14:43:43;17.10;;;15.83;;
7231;SDS011;3657;49.630;11.018;2022-12-07T14:46:09;18.03;;;16.50;;
7231;SDS011;3657;49.630;11.018;2022-12-07T14:48:37;18.30;;;16.80;;
7231;SDS011;3657;49.630;11.018;2022-12-07T14:51:04;18.27;;;16.70;;
7231;SDS011;3657;49.630;11.018;2022-12-07T14:53:34;18.50;;;17.10;;
7231;SDS011;3657;49.630;11.018;2022-12-07T14:56:03;16.50;;;15.10;;
7231;SDS011;3657;49.630;11.018;2022-12-07T14:58:31;16.97;;;15.77;;
7231;SDS011;3657;49.630;11.018;2022-12-07T15:00:58;16.53;;;15.33;;
7231;SDS011;3657;49.630;11.018;2022-12-07T15:03:25;16.43;;;15.33;;
7231;SDS011;3657;49.630;11.018;2022-12-07T15:05:54;16.20;;;15.30;;
7231;SDS011;3657;49.630;11.018;2022-12-07T15:08:21;16.20;;;15.00;;
7231;SDS011;3657;49.630;11.018;2022-12-07T15:10:48;16.37;;;15.13;;
7231;SDS011;3657;49.630;11.018;2022-12-07T15:13:14;16.80;;;15.60;;
7231;SDS011;3657;49.630;11.018;2022-12-07T15:15:59;15.27;;;14.30;;
7231;SDS011;3657;49.630;11.018;2022-12-07T15:18:26;17.27;;;16.07;;
7231;SDS011;3657;49.630;11.018;2022-12-07T15:20:54;14.77;;;13.77;;
7231;SDS011;3657;49.630;11.018;2022-12-07T15:23:21;14.07;;;13.27;;
7231;SDS011;3657;49.630;11.018;2022-12-07T15:25:48;15.67;;;14.57;;
7231;SDS011;3657;49.630;11.018;2022-12-07T15:28:15;15.37;;;14.33;;
7231;SDS011;3657;49.630;11.018;2022-12-07T15:30:42;15.47;;;14.27;;